createdAt,value
2022-08-25T00:00:36.090Z,24.92
2022-08-25T00:05:38.395Z,24.96
2022-08-25T00:10:40.549Z,24.95
2022-08-25T00:15:42.132Z,24.84
2022-08-25T00:20:48.792Z,24.73
2022-08-25T00:25:51.253Z,24.61
2022-08-25T00:30:52.841Z,24.55
2022-08-25T00:35:56.312Z,24.59
2022-08-25T00:41:07.027Z,24.45
2022-08-25T00:46:10.456Z,24.44
2022-08-25T00:51:16.674Z,24.49
2022-08-25T00:56:18.980Z,24.41
2022-08-25T01:01:23.529Z,24.44
2022-08-25T01:06:25.770Z,24.51
2022-08-25T01:11:27.766Z,24.36
2022-08-25T01:16:29.559Z,24.41
2022-08-25T01:21:37.426Z,24.38
2022-08-25T01:26:38.955Z,24.29
2022-08-25T01:31:41.656Z,24.19
2022-08-25T01:36:44.929Z,24.05
2022-08-25T01:42:06.172Z,24.08
2022-08-25T01:47:08.247Z,24.12
2022-08-25T01:52:16.795Z,23.92
2022-08-25T01:57:18.423Z,23.80
2022-08-25T02:02:20.085Z,23.83
2022-08-25T02:07:22.174Z,23.69
2022-08-25T02:12:23.757Z,23.78
2022-08-25T02:17:25.265Z,23.59
2022-08-25T02:22:26.722Z,23.63
2022-08-25T02:27:28.415Z,23.62
2022-08-25T02:32:29.985Z,23.55
2022-08-25T02:37:31.846Z,23.50
2022-08-25T02:42:33.617Z,23.32
2022-08-25T02:47:36.799Z,23.49
2022-08-25T02:52:39.846Z,23.43
2022-08-25T02:57:42.375Z,23.33
2022-08-25T03:02:44.570Z,23.39
2022-08-25T03:07:46.084Z,23.47
2022-08-25T03:12:47.714Z,23.44
2022-08-25T03:17:52.090Z,23.36
2022-08-25T03:22:53.585Z,23.27
2022-08-25T03:27:55.494Z,23.24
2022-08-25T03:32:57.039Z,23.17
2022-08-25T03:37:59.968Z,23.15
2022-08-25T03:43:01.593Z,23.14
2022-08-25T03:48:03.263Z,23.15
2022-08-25T03:53:04.867Z,23.15
2022-08-25T03:58:06.573Z,23.13
2022-08-25T04:03:08.216Z,23.03
2022-08-25T04:08:09.953Z,22.97
2022-08-25T04:13:12.176Z,22.96
2022-08-25T04:18:14.030Z,22.90
2022-08-25T04:23:15.503Z,22.88
2022-08-25T04:28:16.978Z,22.65
2022-08-25T04:33:18.435Z,22.76
2022-08-25T04:38:19.887Z,22.67
2022-08-25T04:43:21.375Z,22.48
2022-08-25T04:48:23.555Z,22.40
2022-08-25T04:53:25.078Z,22.40
2022-08-25T04:58:27.441Z,22.26
2022-08-25T05:03:28.992Z,22.43
2022-08-25T05:08:31.267Z,22.41
2022-08-25T05:13:32.951Z,22.43
2022-08-25T05:18:35.326Z,22.29
2022-08-25T05:23:37.675Z,22.43
2022-08-25T05:28:43.594Z,22.69
2022-08-25T05:33:45.185Z,22.63
2022-08-25T05:38:47.439Z,22.68
2022-08-25T05:43:49.748Z,22.84
2022-08-25T05:48:51.403Z,22.86
2022-08-25T05:53:53.035Z,23.00
2022-08-25T05:58:54.590Z,23.01
2022-08-25T06:03:56.174Z,23.00
2022-08-25T06:08:57.635Z,23.20
2022-08-25T06:13:59.191Z,23.25
2022-08-25T06:19:01.128Z,23.43
2022-08-25T06:24:02.874Z,23.53
2022-08-25T06:29:04.881Z,23.63
2022-08-25T06:34:06.410Z,23.82
2022-08-25T06:39:10.484Z,23.89
2022-08-25T06:44:12.667Z,24.01
2022-08-25T06:49:14.294Z,24.09
2022-08-25T06:54:15.947Z,24.22
2022-08-25T06:59:17.928Z,24.22
2022-08-25T07:04:19.943Z,24.37
2022-08-25T07:09:21.681Z,24.50
2022-08-25T07:14:23.430Z,24.49
2022-08-25T07:19:25.044Z,24.58
2022-08-25T07:24:26.551Z,24.78
2022-08-25T07:29:32.890Z,24.92
2022-08-25T07:34:53.365Z,25.01
2022-08-25T07:39:55.455Z,25.10
2022-08-25T07:44:58.590Z,25.22
2022-08-25T07:50:00.074Z,25.21
2022-08-25T07:55:02.973Z,25.38
2022-08-25T08:00:06.985Z,25.38
2022-08-25T08:05:14.610Z,25.58
2022-08-25T08:15:37.894Z,25.86
2022-08-25T08:20:42.683Z,25.99
2022-08-25T08:25:45.127Z,26.08
2022-08-25T08:30:53.185Z,26.49
2022-08-25T08:36:07.114Z,26.49
2022-08-25T08:42:10.841Z,26.70
2022-08-25T08:47:19.740Z,26.68
2022-08-25T08:52:50.055Z,26.74
2022-08-25T08:57:53.323Z,26.96
2022-08-25T09:03:05.808Z,27.15
2022-08-25T09:08:12.387Z,27.29
2022-08-25T09:13:26.102Z,27.36
2022-08-25T09:18:52.674Z,27.44
2022-08-25T09:24:02.943Z,27.70
2022-08-25T09:29:16.617Z,27.90
2022-08-25T09:34:23.318Z,28.03
2022-08-25T09:39:25.017Z,28.15
2022-08-25T09:44:31.887Z,28.20
2022-08-25T09:49:43.453Z,28.31
2022-08-25T09:54:47.002Z,28.48
2022-08-25T09:59:57.222Z,28.49
2022-08-25T10:04:59.888Z,28.88
2022-08-25T10:10:07.565Z,29.12
2022-08-25T10:15:29.877Z,29.11
2022-08-25T10:20:35.179Z,29.22
2022-08-25T10:25:43.383Z,29.31
2022-08-25T10:31:09.617Z,29.31
2022-08-25T10:36:17.498Z,29.33
2022-08-25T10:41:53.869Z,29.53
2022-08-25T10:47:48.254Z,29.61
2022-08-25T10:53:23.064Z,29.93
2022-08-25T10:58:43.589Z,30.16
2022-08-25T11:03:52.007Z,30.20
2022-08-25T11:08:59.319Z,30.09
2022-08-25T11:14:11.130Z,30.32
2022-08-25T11:19:32.751Z,30.47
2022-08-25T11:24:46.410Z,30.40
2022-08-25T11:29:58.990Z,30.60
2022-08-25T11:35:05.478Z,30.66
2022-08-25T11:40:34.412Z,30.78
2022-08-25T11:46:01.120Z,30.87
2022-08-25T11:51:10.263Z,30.86
2022-08-25T11:56:31.993Z,30.92
2022-08-25T12:01:40.292Z,31.03
2022-08-25T12:07:06.898Z,31.09
2022-08-25T12:12:29.846Z,31.30
2022-08-25T12:17:39.462Z,31.25
2022-08-25T12:22:51.316Z,31.54
2022-08-25T12:28:09.159Z,31.39
2022-08-25T12:33:18.242Z,31.30
2022-08-25T12:38:43.272Z,31.69
2022-08-25T12:43:48.554Z,31.87
2022-08-25T12:49:12.304Z,31.91
2022-08-25T12:54:28.751Z,32.02
2022-08-25T12:59:44.670Z,31.98
2022-08-25T13:05:05.577Z,31.83
2022-08-25T13:10:37.814Z,32.06
2022-08-25T13:15:48.690Z,32.15
2022-08-25T13:21:16.868Z,32.02
2022-08-25T13:26:31.674Z,31.99
2022-08-25T13:31:38.335Z,32.29
2022-08-25T13:37:06.642Z,32.40
2022-08-25T13:42:15.640Z,32.56
2022-08-25T13:47:45.013Z,32.55
2022-08-25T13:52:56.796Z,32.50
2022-08-25T13:57:59.562Z,32.27
2022-08-25T14:03:08.710Z,32.39
2022-08-25T14:08:32.946Z,32.65
2022-08-25T14:13:34.973Z,32.83
2022-08-25T14:18:36.886Z,32.80
2022-08-25T14:23:39.550Z,32.73
2022-08-25T14:28:41.041Z,32.89
2022-08-25T14:33:43.797Z,33.00
2022-08-25T14:38:54.915Z,32.81
2022-08-25T14:43:56.793Z,32.92
2022-08-25T14:49:01.379Z,32.84
2022-08-25T14:54:09.163Z,32.88
2022-08-25T14:59:10.674Z,32.97
2022-08-25T15:04:20.256Z,33.05
2022-08-25T15:09:22.063Z,33.22
2022-08-25T15:14:29.206Z,32.81
2022-08-25T15:19:35.168Z,32.64
2022-08-25T15:24:37.886Z,32.81
2022-08-25T15:29:42.561Z,32.81
2022-08-25T15:34:44.187Z,32.82
2022-08-25T15:39:46.582Z,32.74
2022-08-25T15:44:53.058Z,32.63
2022-08-25T15:50:08.358Z,32.73
2022-08-25T15:55:10.965Z,32.90
2022-08-25T16:00:16.729Z,32.83
2022-08-25T16:05:22.495Z,32.70
2022-08-25T16:10:27.412Z,32.82
2022-08-25T16:15:29.200Z,32.49
2022-08-25T16:20:32.979Z,32.44
2022-08-25T16:25:39.362Z,32.53
2022-08-25T16:30:45.966Z,32.36
2022-08-25T16:36:17.602Z,32.37
2022-08-25T16:41:25.547Z,32.21
2022-08-25T16:46:27.457Z,31.95
2022-08-25T16:51:29.755Z,31.89
2022-08-25T16:56:37.051Z,31.70
2022-08-25T17:01:40.963Z,31.73
2022-08-25T17:06:51.863Z,31.61
2022-08-25T17:11:56.652Z,31.47
2022-08-25T17:16:58.282Z,31.35
2022-08-25T17:21:59.830Z,31.23
2022-08-25T17:27:02.041Z,31.04
2022-08-25T17:32:04.583Z,30.82
2022-08-25T17:37:06.677Z,30.78
2022-08-25T17:42:08.182Z,30.59
2022-08-25T17:47:10.787Z,30.39
2022-08-25T17:52:13.062Z,30.19
2022-08-25T17:57:16.046Z,30.01
2022-08-25T18:02:17.526Z,29.90
2022-08-25T18:07:18.973Z,29.81
2022-08-25T18:12:20.470Z,29.45
2022-08-25T18:17:23.016Z,29.44
2022-08-25T18:22:24.543Z,29.28
2022-08-25T18:27:27.068Z,29.13
2022-08-25T18:32:29.320Z,29.00
2022-08-25T18:37:49.159Z,28.86
2022-08-25T18:42:54.070Z,28.60
2022-08-25T18:47:57.456Z,28.43
2022-08-25T18:53:00.321Z,28.26
2022-08-25T18:58:02.609Z,28.18
2022-08-25T19:03:05.182Z,28.12
2022-08-25T19:08:09.150Z,27.96
2022-08-25T19:13:11.390Z,27.79
2022-08-25T19:18:14.228Z,27.74
2022-08-25T19:23:19.332Z,27.64
2022-08-25T19:28:21.625Z,27.61
2022-08-25T19:33:42.180Z,27.40
2022-08-25T19:38:44.817Z,27.28
2022-08-25T19:43:55.534Z,27.24
2022-08-25T19:48:58.410Z,27.39
2022-08-25T19:54:02.755Z,27.22
2022-08-25T19:59:04.626Z,26.85
2022-08-25T20:04:06.388Z,26.82
2022-08-25T20:09:09.046Z,26.74
2022-08-25T20:14:23.291Z,26.60
2022-08-25T20:19:24.773Z,26.55
2022-08-25T20:24:45.091Z,26.48
2022-08-25T20:29:48.432Z,26.36
2022-08-25T20:34:53.387Z,26.52
2022-08-25T20:39:58.055Z,26.61
2022-08-25T20:45:00.198Z,26.32
2022-08-25T20:50:06.724Z,26.17
2022-08-25T20:55:09.755Z,25.96
2022-08-25T21:00:12.692Z,26.09
2022-08-25T21:05:14.239Z,26.14
2022-08-25T21:10:16.094Z,26.05
2022-08-25T21:15:18.364Z,26.27
2022-08-25T21:20:21.376Z,26.07
2022-08-25T21:25:22.971Z,25.89
2022-08-25T21:30:24.492Z,25.97
2022-08-25T21:35:29.084Z,25.93
2022-08-25T21:40:35.883Z,25.83
2022-08-25T21:45:43.245Z,25.54
2022-08-25T21:50:48.371Z,25.72
2022-08-25T21:55:50.206Z,25.68
2022-08-25T22:00:51.711Z,25.75
2022-08-25T22:05:54.908Z,25.36
2022-08-25T22:10:56.747Z,25.31
2022-08-25T22:15:58.567Z,25.59
2022-08-25T22:21:00.019Z,25.87
2022-08-25T22:26:09.459Z,25.72
2022-08-25T22:31:12.221Z,25.77
2022-08-25T22:36:17.319Z,25.68
2022-08-25T22:41:21.576Z,25.59
2022-08-25T22:46:24.688Z,25.56
2022-08-25T22:51:30.332Z,25.38
2022-08-25T22:56:35.503Z,25.20
2022-08-25T23:01:39.615Z,25.01
2022-08-25T23:06:41.613Z,24.94
2022-08-25T23:11:43.963Z,25.03
2022-08-25T23:16:45.474Z,25.05
2022-08-25T23:22:05.495Z,24.73
2022-08-25T23:27:08.914Z,24.74
2022-08-25T23:32:14.729Z,24.77
2022-08-25T23:37:18.752Z,24.80
2022-08-25T23:42:21.374Z,24.80
2022-08-25T23:47:22.919Z,24.66
2022-08-25T23:52:24.605Z,24.48
2022-08-25T23:57:26.413Z,24.45
